Philadelphia, Pennsylvania
Traffic Map
Current Weather Conditions
Philadelphia, Pennsylvania
Broken Clouds
Broken Clouds
78°
Feels Like: 78°
Wind Chill: 78° Ceiling: 30000
Heat Index: 78° Visibility: 10mi
Dew Point: 40° Wind: 0mph
Humidity: 25% Direction: ° ()
Pressure: 30.31in Gusts: 0mph
Raw Report DataKPHL 211954Z 00000KT 10SM SCT250 BKN300 26/04 A3031 RMK AO2 SLP263 T02560044
Traffic Incident Summary
Active as of:
Severity:
Category:
InformationThere was an issue retrieving the traffic information for this location. Please try a different location or try again shortly.
Advertisements